Time;durP1;ratioP1;P1;durP2;ratioP2;P2;SDS_P1;SDS_P2;PMS_P1;PMS_P2;Temp;Humidity;BMP_temperature;BMP_pressure;BME280_temperature;BME280_humidity;BME280_pressure;Samples;Min_cycle;Max_cycle;Signal;HPM_P1;HPM_P2
2022/05/06 00:02:22;;;;;;;46.33;27.83;;;;;;;;;;5088846;28;20035;-68
2022/05/06 00:04:48;;;;;;;44.78;28.42;;;;;;;;;;5087821;28;20379;-67
2022/05/06 00:07:14;;;;;;;40.65;26.95;;;;;;;;;;5100479;28;20055;-67
2022/05/06 00:09:44;;;;;;;44.88;29.17;;;;;;;;;;5088869;28;20040;-68
2022/05/06 00:12:12;;;;;;;42.92;28.65;;;;;;;;;;5088760;28;20047;-67
2022/05/06 00:14:39;;;;;;;42.45;26.83;;;;;;;;;;5086506;28;20113;-67
2022/05/06 00:17:06;;;;;;;38.70;26.38;;;;;;;;;;5090489;28;20074;-68
2022/05/06 00:19:32;;;;;;;42.38;27.85;;;;;;;;;;5085937;28;20059;-67
2022/05/06 00:21:58;;;;;;;40.15;29.30;;;;;;;;;;5087698;28;20040;-67
2022/05/06 00:24:25;;;;;;;41.35;29.45;;;;;;;;;;5089078;28;20076;-67
2022/05/06 00:26:51;;;;;;;50.25;31.15;;;;;;;;;;5090291;28;20047;-68
2022/05/06 00:29:17;;;;;;;46.55;29.55;;;;;;;;;;5089039;28;20135;-67
2022/05/06 00:31:43;;;;;;;48.35;30.02;;;;;;;;;;5086461;28;20047;-68
2022/05/06 00:34:10;;;;;;;42.80;29.88;;;;;;;;;;5086498;28;20570;-67
2022/05/06 00:36:36;;;;;;;45.00;30.38;;;;;;;;;;5088020;28;20119;-68
2022/05/06 00:39:03;;;;;;;46.20;31.98;;;;;;;;;;5101724;28;20068;-67
2022/05/06 00:41:33;;;;;;;49.33;32.60;;;;;;;;;;5089406;28;20082;-68
2022/05/06 00:43:59;;;;;;;42.25;30.42;;;;;;;;;;5087989;28;20040;-68
2022/05/06 00:46:25;;;;;;;44.55;30.73;;;;;;;;;;5093850;28;20047;-67
2022/05/06 00:48:52;;;;;;;46.35;29.92;;;;;;;;;;5089428;28;20105;-67
2022/05/06 00:51:18;;;;;;;45.88;30.77;;;;;;;;;;5085752;28;20463;-68
2022/05/06 00:53:44;;;;;;;45.42;31.88;;;;;;;;;;5087513;28;20082;-67
2022/05/06 00:56:11;;;;;;;47.22;33.08;;;;;;;;;;5090723;28;20056;-67
2022/05/06 00:58:38;;;;;;;50.45;32.15;;;;;;;;;;5088047;28;20051;-67
2022/05/06 01:01:05;;;;;;;50.17;31.55;;;;;;;;;;5094163;28;20098;-67
2022/05/06 01:03:31;;;;;;;53.97;33.83;;;;;;;;;;5101774;28;20044;-67
2022/05/06 01:05:58;;;;;;;46.10;33.22;;;;;;;;;;5086233;28;20044;-67
2022/05/06 01:08:24;;;;;;;45.30;29.90;;;;;;;;;;5101798;28;20421;-67
2022/05/06 01:10:50;;;;;;;48.72;31.10;;;;;;;;;;5108405;28;20039;-68
2022/05/06 01:13:18;;;;;;;51.22;32.58;;;;;;;;;;5102867;28;20046;-67
2022/05/06 01:15:45;;;;;;;43.58;31.25;;;;;;;;;;5109385;28;20048;-67
2022/05/06 01:18:14;;;;;;;37.72;26.35;;;;;;;;;;5109490;28;20039;-67
2022/05/06 01:20:46;;;;;;;42.80;29.15;;;;;;;;;;5103413;28;20054;-68
2022/05/06 01:23:12;;;;;;;39.17;26.70;;;;;;;;;;5104828;28;20451;-67
2022/05/06 01:25:38;;;;;;;42.58;27.67;;;;;;;;;;5092349;28;20043;-67
2022/05/06 01:28:07;;;;;;;41.35;27.25;;;;;;;;;;5109402;28;20401;-68
2022/05/06 01:30:39;;;;;;;41.33;26.85;;;;;;;;;;5109217;28;20104;-68
2022/05/06 01:33:18;;;;;;;48.80;30.13;;;;;;;;;;5108318;28;20493;-67
2022/05/06 01:35:52;;;;;;;43.13;27.98;;;;;;;;;;5105713;28;20316;-67
2022/05/06 01:38:37;;;;;;;44.35;30.27;;;;;;;;;;5107726;28;20389;-67
2022/05/06 01:41:04;;;;;;;46.38;29.13;;;;;;;;;;5109004;28;20039;-67
2022/05/06 01:43:34;;;;;;;56.85;31.73;;;;;;;;;;5124539;27;20044;-67
2022/05/06 01:46:00;;;;;;;51.28;31.00;;;;;;;;;;5110163;28;20044;-67
2022/05/06 01:48:28;;;;;;;50.92;31.23;;;;;;;;;;5084465;28;20067;-67
2022/05/06 01:50:54;;;;;;;53.35;34.17;;;;;;;;;;5106684;28;20043;-67
2022/05/06 01:53:20;;;;;;;49.00;31.48;;;;;;;;;;5106703;28;20048;-67
2022/05/06 01:55:46;;;;;;;50.50;31.05;;;;;;;;;;5109428;28;20094;-68
2022/05/06 01:58:13;;;;;;;60.40;32.47;;;;;;;;;;5108181;28;20039;-67
2022/05/06 02:00:39;;;;;;;52.97;33.72;;;;;;;;;;5106808;28;20035;-68
2022/05/06 02:03:06;;;;;;;60.58;35.13;;;;;;;;;;5109714;28;20057;-68
2022/05/06 02:05:52;;;;;;;51.42;30.48;;;;;;;;;;5105984;28;20092;-68
2022/05/06 02:08:18;;;;;;;49.83;29.55;;;;;;;;;;5108824;28;20039;-67
2022/05/06 02:10:44;;;;;;;48.88;31.05;;;;;;;;;;5109786;28;20043;-68
2022/05/06 02:13:10;;;;;;;50.08;30.88;;;;;;;;;;5109209;28;20096;-67
2022/05/06 02:15:38;;;;;;;51.50;32.15;;;;;;;;;;5108022;28;20051;-68
2022/05/06 02:18:04;;;;;;;52.55;30.75;;;;;;;;;;5110552;28;20044;-67
2022/05/06 02:20:30;;;;;;;49.60;32.95;;;;;;;;;;5105866;28;20044;-68
2022/05/06 02:22:56;;;;;;;50.72;31.48;;;;;;;;;;5109659;28;20043;-68
2022/05/06 02:25:23;;;;;;;48.40;30.88;;;;;;;;;;5108165;28;20039;-68
2022/05/06 02:27:50;;;;;;;53.38;31.50;;;;;;;;;;5109277;28;20100;-68
2022/05/06 02:33:14;;;;;;;49.03;30.83;;;;;;;;;;5109906;28;20048;-68
2022/05/06 02:35:42;;;;;;;45.97;30.33;;;;;;;;;;5106142;28;20060;-68
2022/05/06 02:38:09;;;;;;;53.67;33.28;;;;;;;;;;5108659;28;20059;-67
2022/05/06 02:40:37;;;;;;;53.53;29.98;;;;;;;;;;5109132;28;20039;-68
2022/05/06 02:43:03;;;;;;;53.30;31.75;;;;;;;;;;5108091;28;20035;-68
2022/05/06 02:45:29;;;;;;;45.72;30.23;;;;;;;;;;5109027;28;20043;-68
2022/05/06 02:47:57;;;;;;;45.83;29.52;;;;;;;;;;5105829;28;20754;-68
2022/05/06 02:50:23;;;;;;;48.10;30.65;;;;;;;;;;5108166;28;20055;-68
2022/05/06 02:52:50;;;;;;;47.40;30.27;;;;;;;;;;5107920;28;20039;-68
2022/05/06 02:55:16;;;;;;;61.42;30.30;;;;;;;;;;5107859;28;20587;-68
2022/05/06 02:57:42;;;;;;;56.85;30.38;;;;;;;;;;5108388;28;20137;-67
2022/05/06 03:00:09;;;;;;;47.92;30.40;;;;;;;;;;5107370;28;20035;-68
2022/05/06 03:02:35;;;;;;;51.83;28.13;;;;;;;;;;5109012;28;20035;-67
2022/05/06 03:05:01;;;;;;;51.58;29.33;;;;;;;;;;5107959;28;20058;-69
2022/05/06 03:07:27;;;;;;;46.75;30.42;;;;;;;;;;5108700;28;20046;-68
2022/05/06 03:09:53;;;;;;;47.67;29.75;;;;;;;;;;5106104;28;20048;-68
2022/05/06 03:12:22;;;;;;;44.65;30.17;;;;;;;;;;5107588;28;20039;-68
2022/05/06 03:14:48;;;;;;;48.03;29.40;;;;;;;;;;5108355;28;20131;-68
2022/05/06 03:17:14;;;;;;;40.03;27.55;;;;;;;;;;5105384;28;20040;-68
2022/05/06 03:19:40;;;;;;;43.50;25.83;;;;;;;;;;5107581;28;20104;-67
2022/05/06 03:22:07;;;;;;;49.72;27.77;;;;;;;;;;5107276;28;20051;-68
2022/05/06 03:24:33;;;;;;;86.60;27.88;;;;;;;;;;5107914;28;20047;-68
2022/05/06 03:27:00;;;;;;;37.13;24.42;;;;;;;;;;5107325;28;20040;-68
2022/05/06 03:29:26;;;;;;;69.78;31.42;;;;;;;;;;5103327;28;20071;-68
2022/05/06 03:31:53;;;;;;;48.03;30.70;;;;;;;;;;5106963;28;20078;-68
2022/05/06 03:34:20;;;;;;;75.85;32.92;;;;;;;;;;5107810;28;20047;-67
2022/05/06 03:36:46;;;;;;;99.40;34.85;;;;;;;;;;5106429;28;20059;-67
2022/05/06 03:39:13;;;;;;;52.55;26.63;;;;;;;;;;5109218;28;20223;-68
2022/05/06 03:41:39;;;;;;;38.95;22.05;;;;;;;;;;5107573;28;20220;-68
2022/05/06 03:44:08;;;;;;;72.22;26.33;;;;;;;;;;5108325;28;20040;-67
2022/05/06 03:46:35;;;;;;;91.82;26.40;;;;;;;;;;5107305;28;20040;-68
2022/05/06 03:49:01;;;;;;;108.72;31.27;;;;;;;;;;5107419;28;20043;-67
2022/05/06 03:51:31;;;;;;;40.05;23.35;;;;;;;;;;5108343;28;20047;-68
2022/05/06 03:53:57;;;;;;;133.38;32.42;;;;;;;;;;5107225;28;20641;-68
2022/05/06 03:56:24;;;;;;;114.88;30.95;;;;;;;;;;5108921;28;20505;-68
2022/05/06 03:58:51;;;;;;;102.43;28.17;;;;;;;;;;5106984;28;20075;-68
2022/05/06 04:01:19;;;;;;;44.50;26.23;;;;;;;;;;5105105;28;20501;-67
2022/05/06 04:03:50;;;;;;;123.72;31.48;;;;;;;;;;5108078;28;20386;-68
2022/05/06 04:06:16;;;;;;;73.40;29.35;;;;;;;;;;5108329;28;20205;-67
2022/05/06 04:08:43;;;;;;;80.60;29.17;;;;;;;;;;5107079;28;20096;-68
2022/05/06 04:11:10;;;;;;;92.60;29.52;;;;;;;;;;5105358;28;20069;-67
2022/05/06 04:13:36;;;;;;;81.13;28.10;;;;;;;;;;5108691;28;20156;-68
2022/05/06 04:16:04;;;;;;;71.35;25.15;;;;;;;;;;5107801;28;20123;-68
2022/05/06 04:18:31;;;;;;;102.30;28.23;;;;;;;;;;5107493;28;20039;-68
2022/05/06 04:23:42;;;;;;;51.63;19.90;;;;;;;;;;5100536;28;20044;-68
2022/05/06 04:26:11;;;;;;;27.48;16.10;;;;;;;;;;5108502;28;20528;-68
2022/05/06 04:28:38;;;;;;;31.73;16.17;;;;;;;;;;5106751;28;20094;-67
2022/05/06 04:31:05;;;;;;;34.50;15.13;;;;;;;;;;5106960;28;20043;-68
2022/05/06 04:33:31;;;;;;;20.65;13.48;;;;;;;;;;5106553;28;20039;-67
2022/05/06 04:35:59;;;;;;;20.67;12.73;;;;;;;;;;5105744;28;20052;-68
2022/05/06 04:38:28;;;;;;;24.00;11.57;;;;;;;;;;5107823;28;20035;-68
2022/05/06 04:40:55;;;;;;;18.45;11.30;;;;;;;;;;5103855;28;20035;-67
2022/05/06 04:43:21;;;;;;;18.52;11.27;;;;;;;;;;5105713;28;20655;-67
2022/05/06 04:45:49;;;;;;;15.23;9.40;;;;;;;;;;5110448;28;20394;-68
2022/05/06 04:48:16;;;;;;;13.25;7.63;;;;;;;;;;5110327;28;20132;-67
2022/05/06 04:50:44;;;;;;;16.17;8.40;;;;;;;;;;5110163;28;20077;-67
2022/05/06 04:53:11;;;;;;;23.85;8.73;;;;;;;;;;5110152;28;20047;-68
2022/05/06 04:55:38;;;;;;;12.40;7.10;;;;;;;;;;5109133;28;20074;-69
2022/05/06 04:58:05;;;;;;;22.52;7.43;;;;;;;;;;5111216;28;20035;-68
2022/05/06 05:00:31;;;;;;;38.42;9.85;;;;;;;;;;5093102;28;20042;-67
2022/05/06 05:02:58;;;;;;;14.13;7.47;;;;;;;;;;5111289;28;20397;-68
2022/05/06 05:05:24;;;;;;;27.23;8.43;;;;;;;;;;5108012;28;20059;-67
2022/05/06 05:07:51;;;;;;;11.95;6.90;;;;;;;;;;5109011;28;20134;-67
2022/05/06 05:10:17;;;;;;;14.15;6.65;;;;;;;;;;5111551;28;20036;-68
2022/05/06 05:12:43;;;;;;;21.75;7.93;;;;;;;;;;5110169;28;20497;-68
2022/05/06 05:15:10;;;;;;;11.15;7.22;;;;;;;;;;5092967;28;20497;-67
2022/05/06 05:17:36;;;;;;;22.35;8.40;;;;;;;;;;5106644;28;20036;-68
2022/05/06 05:20:03;;;;;;;10.65;7.53;;;;;;;;;;5110289;28;20084;-67
2022/05/06 05:22:31;;;;;;;14.73;7.55;;;;;;;;;;5107812;28;20048;-68
2022/05/06 05:24:57;;;;;;;23.40;7.90;;;;;;;;;;5109628;28;20035;-67
2022/05/06 05:27:23;;;;;;;13.02;7.72;;;;;;;;;;5111174;28;20043;-68
2022/05/06 05:29:49;;;;;;;18.92;8.82;;;;;;;;;;5104794;28;20050;-68
2022/05/06 05:32:17;;;;;;;9.70;7.30;;;;;;;;;;5111671;28;20101;-68
2022/05/06 05:34:43;;;;;;;30.98;8.25;;;;;;;;;;5109250;28;20036;-68
2022/05/06 05:37:10;;;;;;;26.95;8.32;;;;;;;;;;5110585;28;20056;-67
2022/05/06 05:39:36;;;;;;;25.13;8.52;;;;;;;;;;5102323;28;20040;-67
2022/05/06 05:42:05;;;;;;;12.73;7.95;;;;;;;;;;5099160;28;20036;-68
2022/05/06 05:50:01;;;;;;;10.75;6.60;;;;;;;;;;5096884;28;20047;-68
2022/05/06 05:52:28;;;;;;;10.63;6.78;;;;;;;;;;5095799;28;20539;-68
2022/05/06 05:54:54;;;;;;;12.32;7.30;;;;;;;;;;5101209;28;20054;-68
2022/05/06 05:57:21;;;;;;;9.80;6.90;;;;;;;;;;5112530;27;20105;-68
2022/05/06 05:59:48;;;;;;;12.13;6.60;;;;;;;;;;5096735;28;20042;-67
2022/05/06 06:02:16;;;;;;;11.20;7.22;;;;;;;;;;5107805;28;20039;-67
2022/05/06 06:04:43;;;;;;;10.15;6.63;;;;;;;;;;5106416;28;20034;-68
2022/05/06 06:07:09;;;;;;;10.82;6.78;;;;;;;;;;5098739;28;20049;-67
2022/05/06 06:09:36;;;;;;;13.38;7.82;;;;;;;;;;5105807;28;20237;-68
2022/05/06 06:12:02;;;;;;;11.70;7.07;;;;;;;;;;5099404;28;20130;-68
2022/05/06 06:14:29;;;;;;;27.52;8.45;;;;;;;;;;5108782;28;20406;-67
2022/05/06 06:16:56;;;;;;;10.10;7.15;;;;;;;;;;5082231;28;20051;-67
2022/05/06 06:19:22;;;;;;;13.55;8.63;;;;;;;;;;5101856;28;20039;-67
2022/05/06 06:21:49;;;;;;;15.35;7.72;;;;;;;;;;5105471;28;20043;-67
2022/05/06 06:24:15;;;;;;;10.82;7.30;;;;;;;;;;5084580;28;20406;-68
2022/05/06 06:26:41;;;;;;;11.93;8.18;;;;;;;;;;5100645;28;20135;-67
2022/05/06 06:29:07;;;;;;;12.25;7.40;;;;;;;;;;5097940;28;20046;-67
2022/05/06 06:31:34;;;;;;;12.75;8.27;;;;;;;;;;5094357;28;20040;-68
2022/05/06 06:34:00;;;;;;;11.63;7.60;;;;;;;;;;5091738;28;20040;-68
2022/05/06 06:36:26;;;;;;;13.35;8.27;;;;;;;;;;5090460;28;20056;-68
2022/05/06 06:38:53;;;;;;;12.10;7.88;;;;;;;;;;5093545;28;20462;-68
2022/05/06 06:41:20;;;;;;;10.98;7.97;;;;;;;;;;5094313;28;20557;-68
2022/05/06 06:43:47;;;;;;;11.57;7.63;;;;;;;;;;5100900;27;20493;-67
2022/05/06 06:46:15;;;;;;;12.50;8.55;;;;;;;;;;5082567;28;20089;-67
2022/05/06 06:48:41;;;;;;;15.40;9.75;;;;;;;;;;5094679;28;20058;-67
2022/05/06 06:51:07;;;;;;;12.65;8.93;;;;;;;;;;5096672;28;20047;-67
2022/05/06 06:53:33;;;;;;;11.77;8.77;;;;;;;;;;5100562;28;20058;-68
2022/05/06 06:55:59;;;;;;;11.75;8.77;;;;;;;;;;5094143;28;20044;-68
2022/05/06 06:58:26;;;;;;;13.23;9.57;;;;;;;;;;5091417;27;20434;-68
2022/05/06 07:00:53;;;;;;;14.25;10.43;;;;;;;;;;5094854;28;20099;-68
2022/05/06 07:03:20;;;;;;;15.10;10.18;;;;;;;;;;5098687;28;20104;-68
2022/05/06 07:14:02;;;;;;;19.27;11.80;;;;;;;;;;5097490;28;20043;-67
2022/05/06 07:16:28;;;;;;;14.35;10.70;;;;;;;;;;5094193;28;20535;-67
2022/05/06 07:18:54;;;;;;;14.98;10.13;;;;;;;;;;5098635;28;20493;-67
2022/05/06 07:21:20;;;;;;;20.33;10.70;;;;;;;;;;5103347;28;20535;-67
2022/05/06 07:23:47;;;;;;;15.35;10.30;;;;;;;;;;5104328;28;20113;-68
2022/05/06 07:26:13;;;;;;;19.23;12.05;;;;;;;;;;5105857;27;20051;-67
2022/05/06 07:28:39;;;;;;;12.75;9.77;;;;;;;;;;5105546;28;20054;-68
2022/05/06 07:31:06;;;;;;;18.73;11.55;;;;;;;;;;5097413;28;20035;-67
2022/05/06 07:33:32;;;;;;;15.07;11.30;;;;;;;;;;5090921;28;20048;-68
2022/05/06 07:35:59;;;;;;;12.25;9.18;;;;;;;;;;5091193;28;20048;-68
2022/05/06 07:38:25;;;;;;;12.13;9.43;;;;;;;;;;5093724;28;20478;-68
2022/05/06 07:40:51;;;;;;;13.60;9.73;;;;;;;;;;5094580;28;20044;-68
2022/05/06 07:43:17;;;;;;;16.15;9.75;;;;;;;;;;5093774;28;20043;-68
2022/05/06 07:45:44;;;;;;;13.82;8.93;;;;;;;;;;5093239;28;20046;-67
2022/05/06 07:48:13;;;;;;;12.27;8.55;;;;;;;;;;5097488;28;20092;-68
2022/05/06 07:50:44;;;;;;;13.38;9.30;;;;;;;;;;5087398;28;20059;-68
2022/05/06 07:53:11;;;;;;;12.25;9.10;;;;;;;;;;5099303;28;20751;-68
2022/05/06 07:55:37;;;;;;;11.93;9.02;;;;;;;;;;5095262;28;20413;-69
2022/05/06 07:58:04;;;;;;;12.60;9.07;;;;;;;;;;5095706;28;20216;-68
2022/05/06 08:00:31;;;;;;;18.17;10.38;;;;;;;;;;5097737;28;20048;-67
2022/05/06 08:05:44;;;;;;;28.63;10.80;;;;;;;;;;5102268;28;20043;-68
2022/05/06 08:08:10;;;;;;;12.88;8.88;;;;;;;;;;5108160;28;20047;-68
2022/05/06 08:10:36;;;;;;;13.63;9.20;;;;;;;;;;5100113;27;20047;-68
2022/05/06 08:13:02;;;;;;;21.83;11.80;;;;;;;;;;5102253;28;20044;-68
2022/05/06 08:15:29;;;;;;;16.75;10.15;;;;;;;;;;5103203;28;20505;-67
2022/05/06 08:17:55;;;;;;;13.35;9.23;;;;;;;;;;5102287;28;20180;-67
2022/05/06 08:20:21;;;;;;;12.93;9.38;;;;;;;;;;5106078;28;20047;-67
2022/05/06 08:22:47;;;;;;;13.57;9.75;;;;;;;;;;5106203;27;20051;-68
2022/05/06 08:25:14;;;;;;;12.55;8.57;;;;;;;;;;5107804;28;20077;-68
2022/05/06 08:27:42;;;;;;;14.13;9.38;;;;;;;;;;5090616;28;20481;-68
2022/05/06 08:30:09;;;;;;;12.93;7.80;;;;;;;;;;5107924;28;20043;-68
2022/05/06 08:32:35;;;;;;;13.57;9.02;;;;;;;;;;5109183;28;20549;-67
2022/05/06 08:35:02;;;;;;;12.60;8.82;;;;;;;;;;5108184;28;20709;-68
2022/05/06 08:37:29;;;;;;;11.90;8.10;;;;;;;;;;5096058;28;20509;-68
2022/05/06 08:39:55;;;;;;;10.35;7.55;;;;;;;;;;5095575;28;20052;-68
2022/05/06 08:42:21;;;;;;;10.75;7.22;;;;;;;;;;5096271;28;20385;-68
2022/05/06 08:53:05;;;;;;;10.75;6.10;;;;;;;;;;5092704;28;20058;-68
2022/05/06 08:55:32;;;;;;;8.32;5.72;;;;;;;;;;5094217;28;20054;-67
2022/05/06 08:57:58;;;;;;;10.20;6.32;;;;;;;;;;5102108;28;20079;-67
2022/05/06 09:00:25;;;;;;;7.65;5.80;;;;;;;;;;5096083;28;20039;-68
2022/05/06 09:02:51;;;;;;;7.80;5.20;;;;;;;;;;5094285;28;20047;-68
2022/05/06 09:05:18;;;;;;;6.88;5.10;;;;;;;;;;5067196;28;20497;-68
2022/05/06 09:07:54;;;;;;;8.15;5.18;;;;;;;;;;5098392;28;20417;-67
2022/05/06 09:10:21;;;;;;;18.35;6.38;;;;;;;;;;5096611;28;20038;-68
2022/05/06 09:12:47;;;;;;;7.95;5.72;;;;;;;;;;5099550;28;20039;-68
2022/05/06 09:17:59;;;;;;;6.55;4.57;;;;;;;;;;5094207;28;20043;-69
2022/05/06 09:20:26;;;;;;;6.57;4.28;;;;;;;;;;5076842;28;20074;-69
2022/05/06 09:22:52;;;;;;;9.73;4.90;;;;;;;;;;5099743;28;20082;-69
2022/05/06 09:25:52;;;;;;;7.55;5.10;;;;;;;;;;5105603;28;20058;-69
2022/05/06 09:28:24;;;;;;;6.57;4.72;;;;;;;;;;5103771;28;20296;-70
2022/05/06 09:31:04;;;;;;;6.55;5.05;;;;;;;;;;5106246;28;20077;-70
2022/05/06 09:33:37;;;;;;;6.28;4.82;;;;;;;;;;5104904;27;20048;-69
2022/05/06 09:36:22;;;;;;;6.40;4.13;;;;;;;;;;5104829;28;20055;-69
2022/05/06 09:39:02;;;;;;;6.00;4.60;;;;;;;;;;5104476;28;20494;-69
2022/05/06 09:41:28;;;;;;;6.35;4.60;;;;;;;;;;5083185;28;20040;-69
2022/05/06 09:43:58;;;;;;;8.77;5.22;;;;;;;;;;5107442;28;20101;-69
2022/05/06 09:46:24;;;;;;;6.65;5.18;;;;;;;;;;5106122;27;20047;-70
2022/05/06 09:48:56;;;;;;;6.30;4.13;;;;;;;;;;5097554;28;20058;-69
2022/05/06 09:51:26;;;;;;;6.22;3.78;;;;;;;;;;5107098;28;20121;-69
2022/05/06 09:53:52;;;;;;;5.45;4.35;;;;;;;;;;5105483;28;20047;-69
2022/05/06 09:56:20;;;;;;;7.57;4.88;;;;;;;;;;5107637;28;20103;-70
2022/05/06 09:58:46;;;;;;;9.20;4.80;;;;;;;;;;5107552;28;20221;-69
2022/05/06 10:01:16;;;;;;;7.60;3.40;;;;;;;;;;5105813;28;20657;-69
2022/05/06 10:03:42;;;;;;;6.35;4.35;;;;;;;;;;5105382;28;20055;-69
2022/05/06 10:06:11;;;;;;;6.40;3.70;;;;;;;;;;5106084;28;20079;-69
2022/05/06 10:08:43;;;;;;;4.10;3.03;;;;;;;;;;5102900;28;20058;-70
2022/05/06 10:11:14;;;;;;;5.47;3.45;;;;;;;;;;5107005;28;20071;-70
2022/05/06 10:13:45;;;;;;;6.93;4.15;;;;;;;;;;5102625;28;20085;-70
2022/05/06 10:16:11;;;;;;;7.32;4.47;;;;;;;;;;5108041;27;20048;-70
2022/05/06 10:18:44;;;;;;;11.20;5.00;;;;;;;;;;5104715;28;20043;-70
2022/05/06 10:21:11;;;;;;;7.43;4.72;;;;;;;;;;5104424;28;20081;-70
2022/05/06 10:23:43;;;;;;;5.65;4.68;;;;;;;;;;5105444;28;20043;-70
2022/05/06 10:26:09;;;;;;;7.00;5.65;;;;;;;;;;5106817;28;20099;-70
2022/05/06 10:34:12;;;;;;;7.93;5.18;;;;;;;;;;5091966;28;20089;-70
2022/05/06 10:36:45;;;;;;;6.13;5.03;;;;;;;;;;5096928;28;20127;-69
2022/05/06 10:39:38;;;;;;;11.27;5.55;;;;;;;;;;5073857;28;20047;-70
2022/05/06 10:42:07;;;;;;;6.85;5.15;;;;;;;;;;5081821;28;20044;-70
2022/05/06 10:44:36;;;;;;;9.18;6.10;;;;;;;;;;5097500;28;20039;-70
2022/05/06 10:47:23;;;;;;;7.88;6.00;;;;;;;;;;5101965;28;20126;-70
2022/05/06 10:49:50;;;;;;;20.52;7.53;;;;;;;;;;5094582;28;20059;-70
2022/05/06 10:52:20;;;;;;;15.13;6.97;;;;;;;;;;5105980;28;20079;-70
2022/05/06 10:54:55;;;;;;;10.93;6.20;;;;;;;;;;5106180;28;20052;-70
2022/05/06 10:57:22;;;;;;;8.45;7.10;;;;;;;;;;5108550;27;20039;-70
2022/05/06 10:59:49;;;;;;;9.02;6.78;;;;;;;;;;5104707;28;20043;-70
2022/05/06 11:02:16;;;;;;;9.50;7.32;;;;;;;;;;5105477;28;20500;-70
2022/05/06 11:04:42;;;;;;;8.10;6.28;;;;;;;;;;5101156;28;20044;-69
2022/05/06 11:07:12;;;;;;;8.13;6.22;;;;;;;;;;5095319;28;20567;-70
2022/05/06 11:09:38;;;;;;;8.07;5.75;;;;;;;;;;5100888;28;20047;-70
2022/05/06 11:12:06;;;;;;;10.98;7.40;;;;;;;;;;5107240;27;20342;-69
2022/05/06 11:14:33;;;;;;;10.18;5.82;;;;;;;;;;5105593;28;20081;-70
2022/05/06 11:17:32;;;;;;;8.95;6.97;;;;;;;;;;5105874;28;20047;-70
2022/05/06 11:19:58;;;;;;;10.90;6.63;;;;;;;;;;5063314;28;20580;-69
2022/05/06 11:22:25;;;;;;;13.93;7.78;;;;;;;;;;5104563;28;20067;-69
2022/05/06 11:24:58;;;;;;;8.63;6.05;;;;;;;;;;5101693;28;20505;-71
2022/05/06 11:27:24;;;;;;;8.32;5.13;;;;;;;;;;5083868;28;20050;-70
2022/05/06 11:29:57;;;;;;;7.18;4.95;;;;;;;;;;5089419;28;20051;-70
2022/05/06 11:32:24;;;;;;;6.57;5.63;;;;;;;;;;5085394;28;20558;-70
2022/05/06 11:34:54;;;;;;;7.93;5.60;;;;;;;;;;5097170;28;20043;-70
2022/05/06 11:37:23;;;;;;;7.22;5.40;;;;;;;;;;5101834;28;20538;-70
2022/05/06 11:39:50;;;;;;;7.45;5.10;;;;;;;;;;5117109;27;20526;-70
2022/05/06 11:42:23;;;;;;;7.38;4.10;;;;;;;;;;5102108;28;20493;-70
2022/05/06 11:47:44;;;;;;;6.43;4.97;;;;;;;;;;5099438;28;20044;-70
2022/05/06 11:50:10;;;;;;;6.57;4.47;;;;;;;;;;5102871;28;20531;-70
2022/05/06 11:52:37;;;;;;;8.93;5.03;;;;;;;;;;5105599;28;20035;-70
2022/05/06 11:55:04;;;;;;;9.38;6.13;;;;;;;;;;5107245;28;20286;-69
2022/05/06 11:57:30;;;;;;;9.82;6.00;;;;;;;;;;5108143;28;20435;-70
2022/05/06 11:59:57;;;;;;;7.97;4.80;;;;;;;;;;5109383;28;20056;-70
2022/05/06 12:02:23;;;;;;;8.30;6.18;;;;;;;;;;5070471;28;20101;-70
2022/05/06 12:04:49;;;;;;;9.75;6.32;;;;;;;;;;5108182;28;20435;-70
2022/05/06 12:07:15;;;;;;;8.82;5.75;;;;;;;;;;5108765;28;20050;-70
2022/05/06 12:09:43;;;;;;;8.02;6.80;;;;;;;;;;5104023;28;20086;-70
2022/05/06 12:12:10;;;;;;;7.97;5.78;;;;;;;;;;5107787;28;20051;-70
2022/05/06 12:14:37;;;;;;;9.60;6.20;;;;;;;;;;5107481;28;20048;-70
2022/05/06 12:17:07;;;;;;;9.82;6.85;;;;;;;;;;5101743;28;20051;-70
2022/05/06 12:19:41;;;;;;;11.68;7.22;;;;;;;;;;5107773;28;20043;-69
2022/05/06 12:22:22;;;;;;;13.00;8.23;;;;;;;;;;5108472;27;20082;-69
2022/05/06 12:24:50;;;;;;;13.60;9.23;;;;;;;;;;5107547;28;20044;-69
2022/05/06 12:27:25;;;;;;;13.32;9.75;;;;;;;;;;5109139;28;20043;-70
2022/05/06 12:29:52;;;;;;;14.00;9.90;;;;;;;;;;5106620;28;20054;-70
2022/05/06 12:32:18;;;;;;;13.18;8.95;;;;;;;;;;5104427;28;20310;-70
2022/05/06 12:34:44;;;;;;;11.88;8.18;;;;;;;;;;5107543;28;20043;-69
2022/05/06 12:37:10;;;;;;;11.25;8.57;;;;;;;;;;5107219;27;20066;-70
2022/05/06 12:39:40;;;;;;;10.48;8.52;;;;;;;;;;5108594;28;20044;-70
2022/05/06 12:42:16;;;;;;;11.23;8.93;;;;;;;;;;5090042;28;20501;-69
2022/05/06 12:44:43;;;;;;;10.02;8.00;;;;;;;;;;5102199;28;20059;-70
2022/05/06 12:47:13;;;;;;;12.80;7.95;;;;;;;;;;5101411;28;20421;-69
2022/05/06 12:49:39;;;;;;;13.23;8.23;;;;;;;;;;5103991;28;20457;-69
2022/05/06 12:52:06;;;;;;;13.63;9.15;;;;;;;;;;5106603;28;20044;-69
2022/05/06 12:54:33;;;;;;;10.57;8.68;;;;;;;;;;5103660;28;20118;-69
2022/05/06 12:56:59;;;;;;;13.90;8.15;;;;;;;;;;5103780;27;20043;-69
2022/05/06 12:59:26;;;;;;;13.52;10.25;;;;;;;;;;5110937;28;20083;-69
2022/05/06 13:01:52;;;;;;;12.40;8.85;;;;;;;;;;5110441;28;20031;-69
2022/05/06 13:04:20;;;;;;;17.80;9.68;;;;;;;;;;5105333;28;20301;-70
2022/05/06 13:06:46;;;;;;;11.15;9.75;;;;;;;;;;5111427;28;20100;-69
2022/05/06 13:09:13;;;;;;;16.30;9.77;;;;;;;;;;5107473;28;20040;-69
2022/05/06 13:11:39;;;;;;;16.25;9.00;;;;;;;;;;5110138;28;20040;-69
2022/05/06 13:14:07;;;;;;;13.30;8.90;;;;;;;;;;5109679;28;20042;-69
2022/05/06 13:16:35;;;;;;;12.38;9.27;;;;;;;;;;5101387;28;20044;-69
2022/05/06 13:19:02;;;;;;;17.70;9.55;;;;;;;;;;5109957;28;20047;-69
2022/05/06 13:21:28;;;;;;;12.05;8.75;;;;;;;;;;5107794;28;20040;-69
2022/05/06 13:23:54;;;;;;;12.40;9.65;;;;;;;;;;5092960;28;20075;-69
2022/05/06 13:26:20;;;;;;;11.38;8.43;;;;;;;;;;5103501;28;20131;-69
2022/05/06 13:28:46;;;;;;;15.68;10.00;;;;;;;;;;5109036;28;20075;-69
2022/05/06 13:31:13;;;;;;;22.15;10.73;;;;;;;;;;5107554;28;20334;-70
2022/05/06 13:33:40;;;;;;;13.77;9.25;;;;;;;;;;5109558;28;20083;-70
2022/05/06 13:36:06;;;;;;;18.02;10.05;;;;;;;;;;5102973;28;20079;-69
2022/05/06 13:38:32;;;;;;;19.00;9.40;;;;;;;;;;5109495;28;20061;-69
2022/05/06 13:40:58;;;;;;;17.42;9.73;;;;;;;;;;5102950;28;20039;-70
2022/05/06 13:43:25;;;;;;;18.83;10.10;;;;;;;;;;5111055;28;20035;-69
2022/05/06 13:45:51;;;;;;;13.07;8.93;;;;;;;;;;5098425;28;20074;-69
2022/05/06 13:48:18;;;;;;;18.52;10.23;;;;;;;;;;5109222;27;20040;-69
2022/05/06 13:50:44;;;;;;;32.78;12.93;;;;;;;;;;5106800;28;20048;-69
2022/05/06 13:53:10;;;;;;;16.67;9.95;;;;;;;;;;5109222;28;20127;-69
2022/05/06 14:01:05;;;;;;;12.73;8.90;;;;;;;;;;5108536;28;20129;-70
2022/05/06 14:03:32;;;;;;;15.82;9.07;;;;;;;;;;5110562;28;20459;-69
2022/05/06 14:05:58;;;;;;;19.13;10.25;;;;;;;;;;5109030;28;20078;-69
2022/05/06 14:08:24;;;;;;;14.27;9.50;;;;;;;;;;5090305;28;20075;-69
2022/05/06 14:10:50;;;;;;;16.33;10.20;;;;;;;;;;5105786;28;20048;-70
2022/05/06 14:13:17;;;;;;;10.48;8.73;;;;;;;;;;5092368;28;20036;-70
2022/05/06 14:15:43;;;;;;;16.52;10.02;;;;;;;;;;5108211;28;20071;-69
2022/05/06 14:18:09;;;;;;;23.90;10.73;;;;;;;;;;5103766;28;20040;-70
2022/05/06 14:20:35;;;;;;;14.45;9.55;;;;;;;;;;5105360;28;20071;-69
2022/05/06 14:23:02;;;;;;;11.35;9.13;;;;;;;;;;5102495;28;20473;-70
2022/05/06 14:25:28;;;;;;;16.42;10.50;;;;;;;;;;5109806;28;20040;-70
2022/05/06 14:27:54;;;;;;;13.90;10.05;;;;;;;;;;5107701;28;20111;-70
2022/05/06 14:30:21;;;;;;;13.15;8.88;;;;;;;;;;5108137;28;20484;-69
2022/05/06 14:32:47;;;;;;;12.85;9.50;;;;;;;;;;5103945;28;20455;-70
2022/05/06 14:35:19;;;;;;;54.35;13.68;;;;;;;;;;5107295;28;20048;-70
2022/05/06 14:37:49;;;;;;;13.57;9.15;;;;;;;;;;5103258;28;20059;-69
2022/05/06 14:40:19;;;;;;;18.17;10.32;;;;;;;;;;5107255;28;20039;-70
2022/05/06 14:42:45;;;;;;;12.23;8.40;;;;;;;;;;5109268;28;20039;-70
2022/05/06 14:45:12;;;;;;;13.45;9.40;;;;;;;;;;5108745;28;20039;-69
2022/05/06 14:47:38;;;;;;;13.65;9.95;;;;;;;;;;5105513;28;20082;-70
2022/05/06 14:50:05;;;;;;;16.73;9.88;;;;;;;;;;5108321;28;20397;-70
2022/05/06 14:52:31;;;;;;;17.92;9.40;;;;;;;;;;5100983;28;20035;-70
2022/05/06 14:54:59;;;;;;;10.98;8.77;;;;;;;;;;5104186;28;20118;-70
2022/05/06 14:57:25;;;;;;;14.57;9.77;;;;;;;;;;5103062;28;20122;-70
2022/05/06 14:59:51;;;;;;;14.98;10.20;;;;;;;;;;5096761;28;20138;-70
2022/05/06 15:02:17;;;;;;;13.15;10.02;;;;;;;;;;5076451;28;20097;-70
2022/05/06 15:04:43;;;;;;;15.57;10.90;;;;;;;;;;5097826;28;20292;-70
2022/05/06 15:07:10;;;;;;;16.40;11.88;;;;;;;;;;5101468;28;20043;-70
2022/05/06 15:09:36;;;;;;;15.35;11.85;;;;;;;;;;5103965;28;20301;-70
2022/05/06 15:12:03;;;;;;;15.13;11.52;;;;;;;;;;5097695;28;20028;-71
2022/05/06 15:14:32;;;;;;;15.45;12.45;;;;;;;;;;5073637;28;20039;-70
2022/05/06 15:17:05;;;;;;;14.50;10.32;;;;;;;;;;5093711;28;20421;-70